Terminal Aerodrome Forecast
Issued by NWS Caribou, ME

Home | Current Version | Previous Version | Text Only | Print | Product List | Glossary On
Versions: 1 2 3 4 5 6 7 8 9 10 11 12 13 14 15 16 17 18
185
FTUS41 KCAR 212353
TAFCAR
TAF
KCAR 212353Z 2200/2224 24005KT P6SM FEW140
     FM220700 VRB03KT 2SM BR SCT250
     FM221100 VRB02KT P6SM SCT200
     FM221700 18007KT P6SM BKN070
     FM222000 18010KT P6SM VCSH BKN040=

USA.gov is the U.S. government's official web portal to all federal, state and local government web resources and services.